createdAt,value
2022-11-17T00:01:26.460Z,1.80
2022-11-17T00:04:31.052Z,2.55
2022-11-17T00:07:32.797Z,2.60
2022-11-17T00:10:34.537Z,2.63
2022-11-17T00:13:54.779Z,2.92
2022-11-17T00:16:56.416Z,2.28
2022-11-17T00:20:16.527Z,2.53
2022-11-17T00:23:18.109Z,2.33
2022-11-17T00:26:21.527Z,2.80
2022-11-17T00:29:23.199Z,3.70
2022-11-17T00:32:43.367Z,2.47
2022-11-17T00:35:49.644Z,3.83
2022-11-17T00:38:51.267Z,3.47
2022-11-17T00:41:52.848Z,2.95
2022-11-17T00:44:54.364Z,3.65
2022-11-17T00:47:55.993Z,3.50
2022-11-17T00:50:57.587Z,3.88
2022-11-17T00:53:59.518Z,2.95
2022-11-17T00:57:01.179Z,3.55
2022-11-17T01:00:02.866Z,4.43
2022-11-17T01:03:04.452Z,3.17
2022-11-17T01:06:12.876Z,4.28
2022-11-17T01:09:19.574Z,3.17
2022-11-17T01:15:22.621Z,3.00
2022-11-17T01:18:24.228Z,3.17
2022-11-17T01:21:26.504Z,3.38
2022-11-17T01:24:28.155Z,3.40
2022-11-17T01:27:29.706Z,3.33
2022-11-17T01:30:31.331Z,3.20
2022-11-17T01:33:33.464Z,3.60
2022-11-17T01:37:08.803Z,3.17
2022-11-17T01:40:12.225Z,3.63
2022-11-17T01:43:13.877Z,2.63
2022-11-17T01:46:15.455Z,3.92
2022-11-17T01:49:17.047Z,3.65
2022-11-17T01:52:18.651Z,3.00
2022-11-17T01:55:21.161Z,4.22
2022-11-17T01:58:26.874Z,3.65
2022-11-17T02:01:28.583Z,2.95
2022-11-17T02:04:36.257Z,3.10
2022-11-17T02:07:39.496Z,2.95
2022-11-17T02:10:44.759Z,2.95
2022-11-17T02:13:51.980Z,3.08
2022-11-17T02:16:53.683Z,3.15
2022-11-17T02:20:05.434Z,3.55
2022-11-17T02:23:21.503Z,3.28
2022-11-17T02:26:26.201Z,3.30
2022-11-17T02:29:32.237Z,3.63
2022-11-17T02:32:41.660Z,3.08
2022-11-17T02:36:18.644Z,2.97
2022-11-17T02:39:22.859Z,3.03
2022-11-17T02:42:57.397Z,3.35
2022-11-17T02:45:59.048Z,2.58
2022-11-17T02:49:03.548Z,3.20
2022-11-17T02:52:06.009Z,3.67
2022-11-17T02:55:08.786Z,3.33
2022-11-17T02:58:13.568Z,3.35
2022-11-17T03:01:24.453Z,2.60
2022-11-17T03:04:29.165Z,2.90
2022-11-17T03:07:36.886Z,3.10
2022-11-17T03:10:57.054Z,3.00
2022-11-17T03:14:05.306Z,2.72
2022-11-17T03:17:13.132Z,3.22
2022-11-17T03:20:30.973Z,3.17
2022-11-17T03:23:47.023Z,2.80
2022-11-17T03:26:53.515Z,2.60
2022-11-17T03:29:58.038Z,2.35
2022-11-17T03:33:05.257Z,3.30
2022-11-17T03:36:14.815Z,2.60
2022-11-17T03:39:19.258Z,2.15
2022-11-17T03:42:23.293Z,2.42
2022-11-17T03:45:35.082Z,2.35
2022-11-17T03:48:59.868Z,2.00
2022-11-17T03:52:01.850Z,2.30
2022-11-17T03:55:03.606Z,2.15
2022-11-17T03:58:07.598Z,1.50
2022-11-17T04:01:09.421Z,1.90
2022-11-17T04:04:20.381Z,1.00
2022-11-17T04:07:21.993Z,2.50
2022-11-17T04:10:26.289Z,1.05
2022-11-17T04:13:46.698Z,2.15
2022-11-17T04:16:48.249Z,2.17
2022-11-17T04:19:49.818Z,1.42
2022-11-17T04:23:07.152Z,2.63
2022-11-17T04:26:27.803Z,1.65
2022-11-17T04:29:29.331Z,1.98
2022-11-17T04:32:30.907Z,1.95
2022-11-17T04:35:32.640Z,1.77
2022-11-17T04:38:34.343Z,2.55
2022-11-17T04:41:54.547Z,1.77
2022-11-17T04:44:56.169Z,2.47
2022-11-17T04:47:57.726Z,2.28
2022-11-17T04:50:59.343Z,1.85
2022-11-17T04:54:01.362Z,2.25
2022-11-17T04:57:02.971Z,2.50
2022-11-17T05:00:04.813Z,2.28
2022-11-17T05:03:06.472Z,2.30
2022-11-17T05:06:08.914Z,1.90
2022-11-17T05:09:12.063Z,1.65
2022-11-17T05:12:32.137Z,2.30
2022-11-17T05:15:52.077Z,2.55
2022-11-17T05:18:53.671Z,1.55
2022-11-17T05:21:55.852Z,1.95
2022-11-17T05:24:57.529Z,2.35
2022-11-17T05:27:59.072Z,1.77
2022-11-17T05:31:00.669Z,2.50
2022-11-17T05:34:02.857Z,1.92
2022-11-17T05:37:04.443Z,1.60
2022-11-17T05:40:06.356Z,2.22
2022-11-17T05:43:07.957Z,1.70
2022-11-17T05:46:09.753Z,1.20
2022-11-17T05:49:11.555Z,1.90
2022-11-17T05:52:13.125Z,2.63
2022-11-17T05:55:14.737Z,2.20
2022-11-17T05:58:22.566Z,1.80
2022-11-17T06:01:24.204Z,2.63
2022-11-17T06:04:25.988Z,2.72
2022-11-17T06:07:27.673Z,2.75
2022-11-17T06:10:29.343Z,3.22
2022-11-17T06:13:30.922Z,2.55
2022-11-17T06:16:34.787Z,2.00
2022-11-17T06:19:39.984Z,2.00
2022-11-17T06:22:47.044Z,2.10
2022-11-17T06:25:49.840Z,2.10
2022-11-17T06:28:51.698Z,1.90
2022-11-17T06:31:53.688Z,2.45
2022-11-17T06:34:56.529Z,2.05
2022-11-17T06:37:58.157Z,0.50
2022-11-17T06:40:59.858Z,2.17
2022-11-17T06:44:01.437Z,0.77
2022-11-17T06:47:03.005Z,1.42
2022-11-17T06:50:05.074Z,0.65
2022-11-17T06:53:07.822Z,2.08
2022-11-17T06:56:09.692Z,1.30
2022-11-17T06:59:11.332Z,1.05
2022-11-17T07:02:12.918Z,2.17
2022-11-17T07:05:14.529Z,1.35
2022-11-17T07:08:16.245Z,0.52
2022-11-17T07:11:18.082Z,1.65
2022-11-17T07:14:20.037Z,0.88
2022-11-17T07:17:21.613Z,1.33
2022-11-17T07:20:23.230Z,1.52
2022-11-17T07:23:24.810Z,3.03
2022-11-17T07:26:26.392Z,1.58
2022-11-17T07:29:28.937Z,2.47
2022-11-17T07:32:31.474Z,1.73
2022-11-17T07:35:35.381Z,3.25
2022-11-17T07:38:38.364Z,2.75
2022-11-17T07:41:40.267Z,2.45
2022-11-17T07:44:41.855Z,2.67
2022-11-17T07:47:43.487Z,2.67
2022-11-17T07:50:45.772Z,2.45
2022-11-17T07:53:47.525Z,2.45
2022-11-17T07:56:49.147Z,2.40
2022-11-17T07:59:50.652Z,1.85
2022-11-17T08:02:52.342Z,2.15
2022-11-17T08:05:53.987Z,2.78
2022-11-17T08:08:55.650Z,3.08
2022-11-17T08:11:58.387Z,1.80
2022-11-17T08:15:00.016Z,2.13
2022-11-17T08:18:01.789Z,2.20
2022-11-17T08:21:16.486Z,2.72
2022-11-17T08:24:18.533Z,3.38
2022-11-17T08:27:20.149Z,2.95
2022-11-17T08:30:21.815Z,2.90
2022-11-17T08:33:23.409Z,2.65
2022-11-17T08:36:25.761Z,3.65
2022-11-17T08:39:27.333Z,2.60
2022-11-17T08:42:28.978Z,3.28
2022-11-17T08:45:30.774Z,3.97
2022-11-17T08:48:33.267Z,3.55
2022-11-17T08:51:35.243Z,3.60
2022-11-17T08:54:39.802Z,4.15
2022-11-17T08:57:41.413Z,3.42
2022-11-17T09:00:43.135Z,4.05
2022-11-17T09:03:45.747Z,3.90
2022-11-17T09:06:47.374Z,3.35
2022-11-17T09:09:49.098Z,3.92
2022-11-17T09:12:50.722Z,4.65
2022-11-17T09:15:52.262Z,3.75
2022-11-17T09:18:55.982Z,4.13
2022-11-17T09:21:57.570Z,4.05
2022-11-17T09:24:59.155Z,4.70
2022-11-17T09:28:01.839Z,3.70
2022-11-17T09:31:07.250Z,3.72
2022-11-17T09:34:08.878Z,4.60
2022-11-17T09:37:10.488Z,3.70
2022-11-17T09:40:16.399Z,3.25
2022-11-17T09:43:26.718Z,4.32
2022-11-17T09:46:46.910Z,3.90
2022-11-17T09:49:58.681Z,4.40
2022-11-17T09:53:12.958Z,3.55
2022-11-17T09:56:14.919Z,4.00
2022-11-17T09:59:18.218Z,4.38
2022-11-17T10:02:20.452Z,3.97
2022-11-17T10:05:27.615Z,4.25
2022-11-17T10:08:41.700Z,4.10
2022-11-17T10:11:44.274Z,3.90
2022-11-17T10:14:46.285Z,3.90
2022-11-17T10:17:47.863Z,4.20
2022-11-17T10:20:49.473Z,3.35
2022-11-17T10:23:56.385Z,3.30
2022-11-17T10:26:57.939Z,3.25
2022-11-17T10:30:04.941Z,3.85
2022-11-17T10:33:06.629Z,3.25
2022-11-17T10:36:15.452Z,2.83
2022-11-17T10:39:37.362Z,3.63
2022-11-17T10:42:39.628Z,2.35
2022-11-17T10:45:52.348Z,2.33
2022-11-17T10:49:01.588Z,3.60
2022-11-17T10:52:06.229Z,3.35
2022-11-17T10:55:17.529Z,2.95
2022-11-17T10:58:29.322Z,2.75
2022-11-17T11:01:35.359Z,2.35
2022-11-17T11:04:40.840Z,3.90
2022-11-17T11:07:42.953Z,1.77
2022-11-17T11:10:47.109Z,2.72
2022-11-17T11:13:53.807Z,2.15
2022-11-17T11:19:56.982Z,2.00
2022-11-17T11:23:04.491Z,2.17
2022-11-17T11:26:24.841Z,1.92
2022-11-17T11:29:30.404Z,1.40
2022-11-17T11:32:31.944Z,1.33
2022-11-17T11:35:39.863Z,1.98
2022-11-17T11:38:50.035Z,1.65
2022-11-17T11:41:54.807Z,2.50
2022-11-17T11:44:56.551Z,1.17
2022-11-17T11:48:07.103Z,1.92
2022-11-17T11:51:08.620Z,3.15
2022-11-17T11:54:13.825Z,3.10
2022-11-17T11:57:16.790Z,3.22
2022-11-17T12:00:18.697Z,3.85
2022-11-17T12:03:24.933Z,3.47
2022-11-17T12:06:42.671Z,4.25
2022-11-17T12:09:44.258Z,1.10
2022-11-17T12:12:46.544Z,4.47
2022-11-17T12:15:48.108Z,3.92
2022-11-17T12:18:49.698Z,4.38
2022-11-17T12:21:54.925Z,2.47
2022-11-17T12:24:57.754Z,3.70
2022-11-17T12:28:18.100Z,3.70
2022-11-17T12:31:25.580Z,5.38
2022-11-17T12:34:35.746Z,3.95
2022-11-17T12:37:37.389Z,3.17
2022-11-17T12:40:38.937Z,4.20
2022-11-17T12:43:40.582Z,2.58
2022-11-17T12:46:44.323Z,0.77
2022-11-17T12:49:59.531Z,2.67
2022-11-17T12:53:09.905Z,5.00
2022-11-17T12:56:21.358Z,4.72
2022-11-17T12:59:25.478Z,3.58
2022-11-17T13:02:33.001Z,4.80
2022-11-17T13:05:35.717Z,5.38
2022-11-17T13:08:37.405Z,3.78
2022-11-17T13:11:39.066Z,6.20
2022-11-17T13:14:55.257Z,7.47
2022-11-17T13:17:57.258Z,4.77
2022-11-17T13:20:59.606Z,5.80
2022-11-17T13:24:01.305Z,4.18
2022-11-17T13:27:07.388Z,5.30
2022-11-17T13:30:12.974Z,4.80
2022-11-17T13:33:19.800Z,4.85
2022-11-17T13:36:24.909Z,5.30
2022-11-17T13:39:29.699Z,5.57
2022-11-17T13:42:33.195Z,4.13
2022-11-17T13:45:37.736Z,4.82
2022-11-17T13:48:40.620Z,5.82
2022-11-17T13:51:43.531Z,4.32
2022-11-17T13:54:45.247Z,5.75
2022-11-17T13:57:54.968Z,6.10
2022-11-17T14:00:57.956Z,4.82
2022-11-17T14:04:19.483Z,4.93
2022-11-17T14:07:29.714Z,5.72
2022-11-17T14:10:36.669Z,4.90
2022-11-17T14:13:41.088Z,6.07
2022-11-17T14:16:42.704Z,6.57
2022-11-17T14:19:44.617Z,5.38
2022-11-17T14:23:07.480Z,5.50
2022-11-17T14:26:18.277Z,5.90
2022-11-17T14:29:19.839Z,6.00
2022-11-17T14:32:21.420Z,6.05
2022-11-17T14:35:23.080Z,5.38
2022-11-17T14:38:24.743Z,5.65
2022-11-17T14:41:26.343Z,5.10
2022-11-17T14:44:28.197Z,5.10
2022-11-17T14:47:29.743Z,5.88
2022-11-17T14:50:31.858Z,5.88
2022-11-17T14:53:33.594Z,5.30
2022-11-17T14:56:35.179Z,4.68
2022-11-17T14:59:36.779Z,5.60
2022-11-17T15:02:38.311Z,6.18
2022-11-17T15:05:43.558Z,5.50
2022-11-17T15:08:45.259Z,6.97
2022-11-17T15:11:46.844Z,6.68
2022-11-17T15:14:48.711Z,5.93
2022-11-17T15:17:50.301Z,5.60
2022-11-17T15:21:01.975Z,5.20
2022-11-17T15:24:04.197Z,6.38
2022-11-17T15:27:05.732Z,6.13
2022-11-17T15:30:07.750Z,6.80
2022-11-17T15:33:09.272Z,4.55
2022-11-17T15:36:16.615Z,5.25
2022-11-17T15:39:18.710Z,4.95
2022-11-17T15:42:20.508Z,5.85
2022-11-17T15:45:22.174Z,4.65
2022-11-17T15:48:23.782Z,4.10
2022-11-17T15:51:26.177Z,5.57
2022-11-17T15:54:27.801Z,4.78
2022-11-17T15:57:29.510Z,4.72
2022-11-17T16:00:33.630Z,4.65
2022-11-17T16:03:35.393Z,4.97
2022-11-17T16:06:38.406Z,5.40
2022-11-17T16:09:39.990Z,5.18
2022-11-17T16:12:41.558Z,4.30
2022-11-17T16:15:43.112Z,4.03
2022-11-17T16:18:44.906Z,4.75
2022-11-17T16:21:46.496Z,4.57
2022-11-17T16:24:48.110Z,4.38
2022-11-17T16:27:49.709Z,5.25
2022-11-17T16:30:51.415Z,4.72
2022-11-17T16:33:53.932Z,4.97
2022-11-17T16:36:55.642Z,4.93
2022-11-17T16:39:57.220Z,4.97
2022-11-17T16:43:01.592Z,5.00
2022-11-17T16:46:17.011Z,4.55
2022-11-17T16:49:19.647Z,5.68
2022-11-17T16:52:21.523Z,5.45
2022-11-17T16:55:23.052Z,5.45
2022-11-17T16:58:24.640Z,5.20
2022-11-17T17:01:27.786Z,5.03
2022-11-17T17:04:30.573Z,5.05
2022-11-17T17:07:32.230Z,5.10
2022-11-17T17:10:34.041Z,4.30
2022-11-17T17:13:35.883Z,4.32
2022-11-17T17:16:38.147Z,5.00
2022-11-17T17:19:39.736Z,4.38
2022-11-17T17:22:41.230Z,3.88
2022-11-17T17:25:42.811Z,5.05
2022-11-17T17:28:45.506Z,4.35
2022-11-17T17:31:47.092Z,5.57
2022-11-17T17:34:48.647Z,6.05
2022-11-17T17:37:50.261Z,6.03
2022-11-17T17:40:51.841Z,6.18
2022-11-17T17:43:54.758Z,6.80
2022-11-17T17:46:57.850Z,7.07
2022-11-17T17:49:59.473Z,6.13
2022-11-17T17:53:01.123Z,5.95
2022-11-17T17:56:04.462Z,5.95
2022-11-17T17:59:05.998Z,5.68
2022-11-17T18:02:08.766Z,5.47
2022-11-17T18:05:10.308Z,4.93
2022-11-17T18:08:12.144Z,5.43
2022-11-17T18:11:16.391Z,4.65
2022-11-17T18:14:21.117Z,6.03
2022-11-17T18:17:22.672Z,5.60
2022-11-17T18:20:24.306Z,6.13
2022-11-17T18:23:27.362Z,5.50
2022-11-17T18:26:30.347Z,5.43
2022-11-17T18:29:31.919Z,3.28
2022-11-17T18:32:33.539Z,4.57
2022-11-17T18:35:35.245Z,5.80
2022-11-17T18:38:37.593Z,5.88
2022-11-17T18:41:39.262Z,3.85
2022-11-17T18:44:40.825Z,7.43
2022-11-17T18:47:42.394Z,23.67
2022-11-17T18:51:17.411Z,11.77
2022-11-17T18:54:05.962Z,13.30
2022-11-17T18:57:07.801Z,7.47
2022-11-17T19:00:09.614Z,6.63
2022-11-17T19:03:11.164Z,7.45
2022-11-17T19:06:13.670Z,8.75
2022-11-17T19:09:16.281Z,8.32
2022-11-17T19:12:19.000Z,7.25
2022-11-17T19:15:21.065Z,7.63
2022-11-17T19:18:22.803Z,7.55
2022-11-17T19:21:26.344Z,6.68
2022-11-17T19:24:27.903Z,7.55
2022-11-17T19:27:29.534Z,6.38
2022-11-17T19:30:31.222Z,6.70
2022-11-17T19:33:33.522Z,6.80
2022-11-17T19:36:35.242Z,6.25
2022-11-17T19:39:36.877Z,9.23
2022-11-17T19:42:38.494Z,9.13
2022-11-17T19:45:40.131Z,8.07
2022-11-17T19:48:42.510Z,7.78
2022-11-17T19:51:44.335Z,7.28
2022-11-17T19:54:45.862Z,6.88
2022-11-17T19:57:47.424Z,7.20
2022-11-17T20:00:49.008Z,5.45
2022-11-17T20:03:50.887Z,5.47
2022-11-17T20:06:52.460Z,5.65
2022-11-17T20:09:54.023Z,5.75
2022-11-17T20:12:55.600Z,4.97
2022-11-17T20:15:57.492Z,5.35
2022-11-17T20:19:00.331Z,6.30
2022-11-17T20:22:01.895Z,7.57
2022-11-17T20:25:05.721Z,2.95
2022-11-17T20:28:08.495Z,6.32
2022-11-17T20:31:17.528Z,7.95
2022-11-17T20:34:19.658Z,6.70
2022-11-17T20:37:21.221Z,7.35
2022-11-17T20:40:22.903Z,6.50
2022-11-17T20:43:27.716Z,5.13
2022-11-17T20:46:29.302Z,5.80
2022-11-17T20:49:30.999Z,3.55
2022-11-17T20:52:32.580Z,5.72
2022-11-17T20:55:38.269Z,5.15
2022-11-17T20:58:40.170Z,5.35
2022-11-17T21:01:41.886Z,2.92
2022-11-17T21:04:43.496Z,4.20
2022-11-17T21:07:45.115Z,1.52
2022-11-17T21:10:46.869Z,3.78
2022-11-17T21:13:51.587Z,2.08
2022-11-17T21:16:54.073Z,2.15
2022-11-17T21:19:55.675Z,3.85
2022-11-17T21:22:57.331Z,2.10
2022-11-17T21:26:02.426Z,2.97
2022-11-17T21:29:06.640Z,2.58
2022-11-17T21:32:08.686Z,2.33
2022-11-17T21:35:10.321Z,4.25
2022-11-17T21:38:12.030Z,1.02
2022-11-17T21:41:15.109Z,0.82
2022-11-17T21:44:16.893Z,2.22
2022-11-17T21:47:20.138Z,4.10
2022-11-17T21:50:21.686Z,1.92
2022-11-17T21:53:23.301Z,1.13
2022-11-17T21:56:26.757Z,0.80
2022-11-17T21:59:28.374Z,1.13
2022-11-17T22:02:29.915Z,2.72
2022-11-17T22:05:31.511Z,2.08
2022-11-17T22:08:34.396Z,2.95
2022-11-17T22:11:37.514Z,3.17
2022-11-17T22:14:39.470Z,1.30
2022-11-17T22:17:41.068Z,2.85
2022-11-17T22:20:42.646Z,0.90
2022-11-17T22:23:44.253Z,4.68
2022-11-17T22:26:46.169Z,1.33
2022-11-17T22:29:47.992Z,3.97
2022-11-17T22:32:49.575Z,4.47
2022-11-17T22:35:51.311Z,3.53
2022-11-17T22:38:52.948Z,3.70
2022-11-17T22:41:54.550Z,3.15
2022-11-17T22:44:56.084Z,2.60
2022-11-17T22:47:57.643Z,3.20
2022-11-17T22:51:00.114Z,5.28
2022-11-17T22:54:01.842Z,4.55
2022-11-17T22:57:03.557Z,3.40
2022-11-17T23:00:05.852Z,1.52
2022-11-17T23:03:07.473Z,3.10
2022-11-17T23:06:09.019Z,3.88
2022-11-17T23:09:10.924Z,3.83
2022-11-17T23:12:12.512Z,3.58
2022-11-17T23:15:14.060Z,4.38
2022-11-17T23:18:15.582Z,3.22
2022-11-17T23:21:17.237Z,4.00
2022-11-17T23:24:18.810Z,3.03
2022-11-17T23:27:20.377Z,4.20
2022-11-17T23:30:21.923Z,3.58
2022-11-17T23:33:23.523Z,4.68
2022-11-17T23:36:25.149Z,4.82
2022-11-17T23:39:26.735Z,4.35
2022-11-17T23:42:32.274Z,4.72
2022-11-17T23:45:34.282Z,3.27
2022-11-17T23:48:35.796Z,2.60
2022-11-17T23:51:37.419Z,4.35
2022-11-17T23:54:38.962Z,4.28
2022-11-17T23:57:40.581Z,3.40
